createdAt,value
2022-09-09T00:02:09.304Z,1.92
2022-09-09T00:05:29.072Z,2.85
2022-09-09T00:08:11.138Z,1.75
2022-09-09T00:11:09.060Z,1.55
2022-09-09T00:14:00.176Z,1.88
2022-09-09T00:16:51.021Z,1.60
2022-09-09T00:19:46.786Z,1.80
2022-09-09T00:22:38.034Z,1.42
2022-09-09T00:25:36.239Z,1.75
2022-09-09T00:28:30.033Z,1.92
2022-09-09T00:31:28.155Z,1.80
2022-09-09T00:34:34.785Z,1.85
2022-09-09T00:37:24.062Z,1.80
2022-09-09T00:40:24.550Z,1.88
2022-09-09T00:43:18.017Z,1.70
2022-09-09T00:46:27.218Z,1.95
2022-09-09T00:49:21.996Z,1.67
2022-09-09T00:52:26.494Z,1.27
2022-09-09T00:55:35.969Z,1.70
2022-09-09T00:58:23.961Z,1.73
2022-09-09T01:01:10.565Z,1.73
2022-09-09T01:04:11.013Z,1.52
2022-09-09T01:06:57.078Z,1.10
2022-09-09T01:09:58.952Z,1.75
2022-09-09T01:12:45.973Z,2.25
2022-09-09T01:15:41.986Z,1.50
2022-09-09T01:21:17.060Z,2.28
2022-09-09T01:24:04.981Z,1.38
2022-09-09T01:27:23.995Z,1.88
2022-09-09T01:30:24.963Z,1.95
2022-09-09T01:33:07.115Z,1.60
2022-09-09T01:36:04.926Z,1.92
2022-09-09T01:38:59.949Z,1.40
2022-09-09T01:41:46.962Z,1.40
2022-09-09T01:44:28.059Z,1.50
2022-09-09T01:47:14.930Z,1.30
2022-09-09T01:50:24.989Z,1.65
2022-09-09T01:53:11.943Z,1.33
2022-09-09T01:56:21.057Z,1.15
2022-09-09T01:59:37.913Z,1.40
2022-09-09T02:02:31.964Z,1.50
2022-09-09T02:05:47.901Z,1.42
2022-09-09T02:09:01.936Z,1.27
2022-09-09T02:11:48.176Z,1.75
2022-09-09T02:14:55.893Z,1.50
2022-09-09T02:17:49.903Z,1.30
2022-09-09T02:20:35.106Z,1.50
2022-09-09T02:23:22.935Z,1.25
2022-09-09T02:26:12.897Z,1.30
2022-09-09T02:31:48.901Z,1.83
2022-09-09T02:34:40.168Z,1.40
2022-09-09T02:37:32.897Z,1.33
2022-09-09T02:40:22.561Z,1.50
2022-09-09T02:43:07.882Z,1.45
2022-09-09T02:46:15.935Z,1.33
2022-09-09T02:49:03.024Z,1.50
2022-09-09T02:52:14.830Z,1.70
2022-09-09T02:55:00.085Z,1.58
2022-09-09T02:57:47.847Z,1.20
2022-09-09T03:00:38.757Z,1.60
2022-09-09T03:03:26.882Z,2.05
2022-09-09T03:06:12.932Z,1.35
2022-09-09T03:26:11.080Z,1.35
2022-09-09T03:28:54.320Z,1.98
2022-09-09T03:31:42.071Z,1.88
2022-09-09T03:34:29.051Z,1.65
2022-09-09T03:37:09.179Z,2.10
2022-09-09T03:39:56.111Z,2.00
2022-09-09T03:42:37.957Z,1.63
2022-09-09T03:45:25.110Z,2.03
2022-09-09T03:48:05.884Z,1.95
2022-09-09T03:50:54.038Z,1.95
2022-09-09T03:53:35.362Z,2.20
2022-09-09T03:56:22.064Z,2.80
2022-09-09T03:59:03.220Z,2.03
2022-09-09T04:01:50.090Z,3.00
2022-09-09T04:04:37.003Z,2.65
2022-09-09T04:07:24.015Z,1.90
2022-09-09T04:10:11.052Z,2.72
2022-09-09T04:12:57.987Z,2.63
2022-09-09T04:15:46.008Z,2.47
2022-09-09T04:18:29.164Z,2.97
2022-09-09T04:21:17.026Z,3.08
2022-09-09T04:24:11.015Z,2.25
2022-09-09T04:26:51.413Z,2.77
2022-09-09T04:29:38.011Z,1.77
2022-09-09T04:32:24.971Z,3.08
2022-09-09T04:35:12.030Z,2.85
2022-09-09T04:37:52.410Z,2.50
2022-09-09T04:40:40.974Z,3.40
2022-09-09T04:43:29.986Z,5.53
2022-09-09T04:46:19.989Z,5.03
2022-09-09T04:49:00.334Z,3.20
2022-09-09T04:51:47.971Z,2.30
2022-09-09T04:54:29.538Z,3.58
2022-09-09T04:57:18.794Z,2.20
2022-09-09T05:00:00.998Z,2.50
2022-09-09T05:02:52.957Z,1.90
2022-09-09T05:05:37.271Z,2.30
2022-09-09T05:08:23.930Z,1.77
2022-09-09T05:11:32.977Z,1.15
2022-09-09T05:14:23.695Z,2.30
2022-09-09T05:17:09.947Z,1.70
2022-09-09T05:19:50.278Z,1.88
2022-09-09T05:22:37.925Z,2.53
2022-09-09T05:25:24.960Z,1.52
2022-09-09T05:28:06.481Z,1.45
2022-09-09T05:30:52.961Z,1.58
2022-09-09T05:33:38.018Z,1.17
2022-09-09T05:36:29.907Z,1.45
2022-09-09T05:39:10.427Z,0.90
2022-09-09T05:41:56.977Z,1.15
2022-09-09T05:44:38.267Z,1.10
2022-09-09T05:47:24.946Z,0.80
2022-09-09T05:50:06.681Z,1.20
2022-09-09T05:52:53.930Z,1.40
2022-09-09T05:55:34.347Z,1.00
2022-09-09T05:58:20.949Z,1.17
2022-09-09T06:01:17.938Z,0.93
2022-09-09T06:03:59.038Z,1.35
2022-09-09T06:06:47.926Z,1.58
2022-09-09T06:09:33.018Z,1.50
2022-09-09T06:12:19.929Z,1.10
2022-09-09T06:15:00.087Z,0.85
2022-09-09T06:17:46.906Z,1.30
2022-09-09T06:20:33.915Z,1.00
2022-09-09T06:23:20.910Z,1.10
2022-09-09T06:26:24.880Z,0.93
2022-09-09T06:29:12.916Z,1.00
2022-09-09T06:31:53.154Z,1.35
2022-09-09T06:34:40.907Z,0.95
2022-09-09T06:37:21.627Z,1.00
2022-09-09T06:40:07.915Z,1.20
2022-09-09T06:42:54.881Z,1.30
2022-09-09T06:45:42.287Z,1.55
2022-09-09T06:48:29.944Z,0.88
2022-09-09T06:51:13.758Z,1.15
2022-09-09T06:54:01.861Z,1.98
2022-09-09T06:56:50.884Z,1.05
2022-09-09T06:59:32.027Z,0.75
2022-09-09T07:02:18.906Z,0.82
2022-09-09T07:05:05.876Z,1.00
2022-09-09T07:07:48.242Z,1.20
2022-09-09T07:10:34.916Z,1.23
2022-09-09T07:13:22.829Z,1.08
2022-09-09T07:16:03.070Z,1.60
2022-09-09T07:18:50.834Z,1.10
2022-09-09T07:21:34.151Z,1.33
2022-09-09T07:27:08.834Z,1.33
2022-09-09T07:29:49.677Z,1.30
2022-09-09T07:32:38.811Z,0.90
2022-09-09T07:35:25.813Z,1.27
2022-09-09T07:38:15.840Z,1.50
2022-09-09T07:41:07.949Z,4.43
2022-09-09T07:43:57.815Z,1.08
2022-09-09T07:46:46.877Z,1.17
2022-09-09T07:49:33.418Z,0.60
2022-09-09T07:52:21.970Z,0.90
2022-09-09T07:55:06.983Z,0.88
2022-09-09T07:57:53.802Z,0.77
2022-09-09T08:00:34.609Z,0.65
2022-09-09T08:03:21.878Z,0.98
2022-09-09T08:06:15.809Z,0.75
2022-09-09T08:09:03.821Z,0.77
2022-09-09T08:11:45.913Z,1.00
2022-09-09T08:14:32.773Z,7.05
2022-09-09T08:17:13.918Z,1.20
2022-09-09T08:20:01.810Z,1.08
2022-09-09T08:22:49.812Z,1.73
2022-09-09T08:25:36.794Z,0.80
2022-09-09T08:28:16.974Z,0.80
2022-09-09T08:31:03.821Z,0.90
2022-09-09T08:33:53.531Z,0.65
2022-09-09T08:36:37.798Z,0.63
2022-09-09T08:39:28.777Z,0.90
2022-09-09T08:42:28.764Z,1.55
2022-09-09T08:45:27.778Z,1.20
2022-09-09T08:48:53.039Z,1.05
2022-09-09T08:51:44.756Z,1.10
2022-09-09T08:54:51.777Z,0.60
2022-09-09T08:57:35.911Z,0.80
2022-09-09T09:00:22.775Z,0.73
2022-09-09T09:03:16.758Z,0.95
2022-09-09T09:06:13.555Z,1.35
2022-09-09T09:09:00.763Z,0.82
2022-09-09T09:11:52.593Z,2.20
2022-09-09T09:14:43.676Z,0.73
2022-09-09T09:17:35.747Z,0.60
2022-09-09T09:20:21.890Z,0.77
2022-09-09T09:23:11.746Z,1.17
2022-09-09T09:25:58.731Z,0.85
2022-09-09T09:28:41.334Z,0.80
2022-09-09T09:31:30.789Z,1.52
2022-09-09T09:34:13.082Z,1.00
2022-09-09T09:37:09.690Z,0.90
2022-09-09T09:40:05.980Z,0.80
2022-09-09T09:43:02.717Z,0.80
2022-09-09T09:45:55.283Z,0.70
2022-09-09T09:48:47.678Z,1.35
2022-09-09T09:51:36.754Z,1.00
2022-09-09T09:54:30.709Z,0.90
2022-09-09T09:57:13.378Z,1.23
2022-09-09T10:00:02.674Z,0.73
2022-09-09T10:02:55.912Z,1.00
2022-09-09T10:05:43.758Z,1.02
2022-09-09T10:08:32.731Z,0.75
2022-09-09T10:11:29.785Z,2.85
2022-09-09T10:14:42.704Z,0.93
2022-09-09T10:17:46.810Z,0.80
2022-09-09T10:21:15.688Z,0.85
2022-09-09T10:24:32.763Z,1.15
2022-09-09T10:27:36.689Z,1.00
2022-09-09T10:30:19.952Z,1.05
2022-09-09T10:33:17.658Z,1.40
2022-09-09T10:36:30.789Z,1.15
2022-09-09T10:39:50.700Z,1.20
2022-09-09T10:42:44.607Z,1.33
2022-09-09T10:49:05.271Z,0.90
2022-09-09T10:51:57.659Z,1.20
2022-09-09T10:55:03.611Z,0.90
2022-09-09T10:57:56.653Z,2.72
2022-09-09T11:01:00.629Z,1.65
2022-09-09T11:03:42.729Z,1.10
2022-09-09T11:06:33.862Z,1.10
2022-09-09T11:09:26.617Z,0.82
2022-09-09T11:12:09.591Z,1.00
2022-09-09T11:15:04.604Z,1.30
2022-09-09T11:17:52.708Z,1.10
2022-09-09T11:20:39.583Z,1.20
2022-09-09T11:23:24.722Z,0.95
2022-09-09T11:26:14.655Z,0.93
2022-09-09T11:29:05.096Z,1.30
2022-09-09T11:32:07.608Z,1.15
2022-09-09T11:35:04.605Z,1.30
2022-09-09T11:37:52.311Z,1.38
2022-09-09T11:40:40.594Z,2.65
2022-09-09T11:43:39.617Z,1.25
2022-09-09T11:46:29.655Z,1.02
2022-09-09T11:49:29.833Z,1.15
2022-09-09T11:52:45.586Z,1.63
2022-09-09T11:55:40.571Z,1.58
2022-09-09T11:58:27.578Z,1.10
2022-09-09T12:01:42.572Z,1.15
2022-09-09T12:04:40.712Z,1.98
2022-09-09T12:07:28.837Z,1.10
2022-09-09T12:10:33.541Z,1.13
2022-09-09T12:13:23.952Z,1.02
2022-09-09T12:16:13.587Z,0.90
2022-09-09T12:19:15.665Z,1.02
2022-09-09T12:22:12.573Z,0.93
2022-09-09T12:25:53.554Z,1.02
2022-09-09T12:28:54.111Z,1.10
2022-09-09T12:31:55.549Z,1.70
2022-09-09T12:34:47.924Z,1.35
2022-09-09T12:37:56.521Z,1.33
2022-09-09T12:40:43.519Z,0.90
2022-09-09T12:43:33.630Z,1.23
2022-09-09T12:46:33.514Z,1.10
2022-09-09T12:49:41.507Z,1.38
2022-09-09T12:52:37.486Z,0.85
2022-09-09T12:55:33.546Z,1.25
2022-09-09T12:58:17.678Z,1.30
2022-09-09T13:01:07.549Z,1.10
2022-09-09T13:03:48.325Z,0.88
2022-09-09T13:06:44.505Z,1.13
2022-09-09T13:09:25.403Z,1.10
2022-09-09T13:12:13.522Z,1.35
2022-09-09T13:15:03.514Z,1.55
2022-09-09T13:17:50.490Z,1.25
2022-09-09T13:20:32.036Z,1.50
2022-09-09T13:23:18.492Z,1.20
2022-09-09T13:26:29.480Z,1.70
2022-09-09T13:29:24.611Z,2.00
2022-09-09T13:32:13.465Z,1.52
2022-09-09T13:35:11.502Z,1.95
2022-09-09T13:37:51.875Z,1.80
2022-09-09T13:40:39.507Z,1.92
2022-09-09T13:43:30.474Z,2.00
2022-09-09T13:46:20.455Z,2.33
2022-09-09T13:49:14.643Z,2.10
2022-09-09T13:51:58.438Z,2.42
2022-09-09T13:57:38.461Z,2.55
2022-09-09T14:00:19.120Z,2.55
2022-09-09T14:03:05.469Z,2.67
2022-09-09T14:05:46.657Z,3.00
2022-09-09T14:08:44.474Z,2.95
2022-09-09T14:11:31.436Z,3.45
2022-09-09T14:14:11.931Z,3.00
2022-09-09T14:16:58.435Z,2.97
2022-09-09T14:19:45.429Z,2.92
2022-09-09T14:22:26.689Z,3.10
2022-09-09T14:25:13.397Z,2.75
2022-09-09T14:27:53.769Z,2.50
2022-09-09T14:30:40.462Z,2.72
2022-09-09T14:33:20.890Z,2.65
2022-09-09T14:36:14.397Z,2.97
2022-09-09T14:39:01.414Z,2.38
2022-09-09T14:41:48.431Z,3.08
2022-09-09T14:44:29.310Z,2.42
2022-09-09T14:47:16.374Z,2.88
2022-09-09T14:50:03.385Z,2.80
2022-09-09T14:52:50.413Z,3.58
2022-09-09T14:55:37.460Z,2.85
2022-09-09T14:58:17.533Z,2.20
2022-09-09T15:01:19.471Z,2.92
2022-09-09T15:04:09.371Z,3.50
2022-09-09T15:06:50.942Z,3.00
2022-09-09T15:09:37.370Z,2.80
2022-09-09T15:27:59.616Z,2.60
2022-09-09T15:30:40.031Z,2.67
2022-09-09T15:33:26.648Z,2.72
2022-09-09T15:36:30.635Z,2.92
2022-09-09T15:39:13.947Z,2.92
2022-09-09T15:42:00.601Z,2.83
2022-09-09T15:44:56.630Z,3.00
2022-09-09T15:47:44.591Z,2.95
2022-09-09T15:50:24.737Z,3.83
2022-09-09T15:53:12.620Z,2.75
2022-09-09T15:55:59.591Z,3.47
2022-09-09T15:58:46.580Z,2.63
2022-09-09T16:01:26.817Z,2.35
2022-09-09T16:04:13.598Z,3.50
2022-09-09T16:07:00.596Z,3.10
2022-09-09T16:09:47.682Z,3.33
2022-09-09T16:12:27.620Z,2.97
2022-09-09T16:15:08.470Z,3.40
2022-09-09T16:17:55.557Z,2.97
2022-09-09T16:20:43.575Z,3.67
2022-09-09T16:23:23.718Z,2.63
2022-09-09T16:26:10.542Z,2.85
2022-09-09T16:28:57.592Z,3.08
2022-09-09T16:31:44.589Z,2.85
2022-09-09T16:34:32.564Z,2.78
2022-09-09T16:37:12.961Z,3.17
2022-09-09T16:39:59.669Z,3.17
2022-09-09T16:42:46.567Z,3.20
2022-09-09T16:45:26.711Z,3.03
2022-09-09T16:48:13.561Z,2.55
2022-09-09T16:50:53.992Z,2.60
2022-09-09T16:53:41.559Z,3.22
2022-09-09T16:56:26.302Z,3.22
2022-09-09T16:59:16.536Z,3.60
2022-09-09T17:02:05.557Z,2.63
2022-09-09T17:04:45.906Z,3.05
2022-09-09T17:07:32.518Z,2.83
2022-09-09T17:10:12.882Z,3.38
2022-09-09T17:12:59.522Z,3.38
2022-09-09T17:15:50.626Z,3.47
2022-09-09T17:18:37.539Z,3.30
2022-09-09T17:21:22.104Z,2.83
2022-09-09T17:24:11.507Z,2.95
2022-09-09T17:26:58.850Z,3.50
2022-09-09T17:29:38.545Z,2.83
2022-09-09T17:32:25.484Z,3.03
2022-09-09T17:35:13.476Z,3.15
2022-09-09T17:38:02.462Z,4.63
2022-09-09T17:40:43.796Z,3.00
2022-09-09T17:43:30.482Z,2.92
2022-09-09T17:46:20.534Z,2.20
2022-09-09T17:49:06.105Z,2.60
2022-09-09T17:51:52.458Z,2.50
2022-09-09T17:54:33.357Z,3.13
2022-09-09T17:57:20.465Z,2.70
2022-09-09T18:00:00.867Z,2.83
2022-09-09T18:02:52.487Z,1.92
2022-09-09T18:05:39.545Z,3.40
2022-09-09T18:08:20.435Z,2.63
2022-09-09T18:11:02.211Z,2.22
2022-09-09T18:13:49.462Z,2.15
2022-09-09T18:16:42.523Z,2.80
2022-09-09T18:19:34.465Z,2.05
2022-09-09T18:22:14.945Z,2.35
2022-09-09T18:25:01.409Z,2.88
2022-09-09T18:27:48.637Z,2.28
2022-09-09T18:30:29.463Z,2.70
2022-09-09T18:33:09.882Z,2.40
2022-09-09T18:35:56.437Z,2.33
2022-09-09T18:38:38.623Z,2.55
2022-09-09T18:41:37.437Z,3.28
2022-09-09T18:44:31.412Z,2.25
2022-09-09T18:47:11.534Z,2.50
2022-09-09T18:49:58.425Z,2.28
2022-09-09T18:52:38.523Z,2.60
2022-09-09T18:55:25.428Z,2.03
2022-09-09T18:58:05.572Z,1.85
2022-09-09T19:00:53.427Z,1.95
2022-09-09T19:03:42.382Z,2.05
2022-09-09T19:06:32.410Z,2.00
2022-09-09T19:09:19.408Z,2.20
2022-09-09T19:12:07.421Z,2.50
2022-09-09T19:14:47.747Z,2.20
2022-09-09T19:17:35.430Z,2.00
2022-09-09T19:20:23.408Z,2.15
2022-09-09T19:23:05.021Z,1.98
2022-09-09T19:25:52.392Z,2.05
2022-09-09T19:28:42.598Z,2.42
2022-09-09T19:31:25.375Z,1.48
2022-09-09T19:34:12.402Z,1.77
2022-09-09T19:37:00.382Z,2.20
2022-09-09T19:39:41.391Z,2.72
2022-09-09T19:42:28.332Z,1.95
2022-09-09T19:45:15.453Z,2.03
2022-09-09T19:47:55.371Z,1.92
2022-09-09T19:50:37.070Z,2.05
2022-09-09T19:53:24.330Z,2.17
2022-09-09T19:56:05.787Z,1.98
2022-09-09T19:58:54.368Z,2.22
2022-09-09T20:01:43.440Z,2.50
2022-09-09T20:04:23.453Z,2.00
2022-09-09T20:07:10.327Z,1.90
2022-09-09T20:09:57.376Z,2.15
2022-09-09T20:12:44.447Z,2.38
2022-09-09T20:15:24.316Z,1.85
2022-09-09T20:18:04.906Z,2.00
2022-09-09T20:20:55.317Z,2.33
2022-09-09T20:23:35.855Z,1.77
2022-09-09T20:26:25.339Z,2.05
2022-09-09T20:29:15.257Z,2.17
2022-09-09T20:32:02.306Z,2.67
2022-09-09T20:34:49.325Z,1.98
2022-09-09T20:37:31.871Z,1.88
2022-09-09T20:40:18.291Z,2.00
2022-09-09T20:43:05.285Z,2.47
2022-09-09T20:45:52.323Z,2.00
2022-09-09T20:48:39.281Z,2.10
2022-09-09T20:51:27.269Z,1.90
2022-09-09T20:54:26.264Z,2.00
2022-09-09T20:57:13.270Z,2.05
2022-09-09T21:00:00.273Z,2.35
2022-09-09T21:02:40.705Z,1.88
2022-09-09T21:05:27.292Z,1.85
2022-09-09T21:08:07.650Z,1.90
2022-09-09T21:10:58.312Z,2.67
2022-09-09T21:13:39.688Z,1.98
2022-09-09T21:16:29.263Z,2.30
2022-09-09T21:19:23.273Z,2.00
2022-09-09T21:22:10.298Z,1.90
2022-09-09T21:24:50.935Z,2.40
2022-09-09T21:27:37.228Z,1.50
2022-09-09T21:30:34.795Z,1.90
2022-09-09T21:33:18.269Z,2.10
2022-09-09T21:36:07.023Z,2.28
2022-09-09T21:38:55.258Z,2.10
2022-09-09T21:41:43.228Z,2.28
2022-09-09T21:44:23.340Z,2.00
2022-09-09T21:47:10.236Z,1.77
2022-09-09T21:49:51.073Z,1.70
2022-09-09T21:52:38.217Z,2.03
2022-09-09T21:55:18.341Z,2.33
2022-09-09T21:58:06.250Z,2.03
2022-09-09T22:00:51.362Z,2.75
2022-09-09T22:03:38.184Z,1.77
2022-09-09T22:06:20.359Z,1.88
2022-09-09T22:09:08.245Z,1.83
2022-09-09T22:11:48.309Z,2.47
2022-09-09T22:14:35.230Z,2.08
2022-09-09T22:17:22.202Z,2.20
2022-09-09T22:20:09.330Z,2.00
2022-09-09T22:22:49.210Z,2.38
2022-09-09T22:25:42.208Z,1.83
2022-09-09T22:28:30.021Z,2.30
2022-09-09T22:31:11.208Z,1.80
2022-09-09T22:34:01.188Z,1.70
2022-09-09T22:36:42.140Z,1.83
2022-09-09T22:39:29.180Z,2.63
2022-09-09T22:42:09.265Z,2.17
2022-09-09T22:44:56.169Z,2.42
2022-09-09T22:47:43.157Z,1.95
2022-09-09T22:50:23.970Z,2.33
2022-09-09T22:53:11.187Z,2.10
2022-09-09T22:55:58.542Z,2.10
2022-09-09T22:58:47.152Z,2.58
2022-09-09T23:01:29.313Z,2.50
2022-09-09T23:04:16.124Z,2.53
2022-09-09T23:06:56.516Z,3.08
2022-09-09T23:09:43.112Z,2.17
2022-09-09T23:12:32.153Z,2.20
2022-09-09T23:15:24.180Z,2.55
2022-09-09T23:18:04.513Z,2.40
2022-09-09T23:20:52.169Z,2.28
2022-09-09T23:23:32.692Z,2.22
2022-09-09T23:26:19.167Z,2.70
2022-09-09T23:29:14.151Z,2.30
2022-09-09T23:31:54.487Z,3.28
2022-09-09T23:34:42.123Z,2.25
2022-09-09T23:37:29.105Z,2.63
2022-09-09T23:40:09.239Z,2.58
2022-09-09T23:42:56.081Z,2.38
2022-09-09T23:45:43.122Z,2.15
2022-09-09T23:48:34.101Z,2.50
2022-09-09T23:51:26.114Z,2.03
2022-09-09T23:54:06.648Z,2.65
2022-09-09T23:56:55.064Z,2.25
2022-09-09T23:59:35.637Z,2.47
